Time;durP1;ratioP1;P1;durP2;ratioP2;P2;SDS_P1;SDS_P2;PMS_P1;PMS_P2;Temp;Humidity;BMP_temperature;BMP_pressure;BME280_temperature;BME280_humidity;BME280_pressure;Samples;Min_cycle;Max_cycle;Signal;HPM_P1;HPM_P2
2023/09/27 00:00:09;;;;;;;4.10;3.70;;;;;;;15.84;74.58;96054.16;6152717;23;20205;-80
2023/09/27 00:02:35;;;;;;;4.43;3.55;;;;;;;15.81;74.19;96054.50;6128191;23;20155;-80
2023/09/27 00:05:01;;;;;;;4.15;3.75;;;;;;;15.86;74.23;96053.00;6152708;23;20515;-80
2023/09/27 00:07:26;;;;;;;5.30;3.40;;;;;;;15.89;73.62;96051.03;6151602;23;20158;-79
2023/09/27 00:09:52;;;;;;;3.42;3.17;;;;;;;15.84;73.60;96051.56;6151710;23;20166;-80
2023/09/27 00:12:18;;;;;;;3.95;3.55;;;;;;;15.84;73.50;96049.75;6126944;23;20155;-79
2023/09/27 00:14:43;;;;;;;4.53;3.25;;;;;;;15.88;73.20;96037.13;6153006;23;20171;-82
2023/09/27 00:17:08;;;;;;;4.50;3.10;;;;;;;15.84;72.55;96039.28;6152170;23;20158;-78
2023/09/27 00:19:34;;;;;;;3.08;2.85;;;;;;;15.77;72.59;96050.59;6152555;23;20151;-80
2023/09/27 00:21:59;;;;;;;3.90;2.88;;;;;;;15.71;73.14;96054.69;6127619;23;20151;-82
2023/09/27 00:24:25;;;;;;;3.00;2.80;;;;;;;15.75;73.13;96052.56;6153335;23;20171;-81
2023/09/27 00:26:50;;;;;;;4.00;3.20;;;;;;;15.77;72.97;96051.41;6127239;23;20175;-81
2023/09/27 00:29:15;;;;;;;3.92;3.28;;;;;;;15.75;72.98;96048.13;6127331;23;20258;-80
2023/09/27 00:31:41;;;;;;;3.28;2.97;;;;;;;15.78;73.11;96052.22;6151974;23;20182;-81
2023/09/27 00:34:06;;;;;;;5.80;3.13;;;;;;;15.77;73.03;96047.97;6153410;23;20201;-79
2023/09/27 00:36:31;;;;;;;3.83;3.40;;;;;;;15.74;72.90;96045.69;6127391;23;20387;-80
2023/09/27 00:38:58;;;;;;;5.68;3.30;;;;;;;15.69;73.16;96048.78;6127000;23;20215;-79
2023/09/27 00:41:23;;;;;;;3.33;3.03;;;;;;;15.65;73.50;96044.06;6151825;23;20159;-80
2023/09/27 00:43:49;;;;;;;4.07;3.70;;;;;;;15.64;73.83;96043.25;6152063;23;20163;-79
2023/09/27 00:46:16;;;;;;;3.47;3.17;;;;;;;15.61;73.78;96037.53;6127863;23;20289;-79
2023/09/27 00:48:41;;;;;;;2.97;2.78;;;;;;;15.63;73.55;96043.41;6151200;23;20179;-80
2023/09/27 00:51:07;;;;;;;4.32;3.13;;;;;;;15.68;73.57;96048.97;6152436;23;20151;-79
2023/09/27 00:53:36;;;;;;;3.97;3.25;;;;;;;15.67;73.38;96048.16;6150738;23;20163;-80
2023/09/27 00:56:02;;;;;;;3.05;2.83;;;;;;;15.61;73.12;96053.22;6127954;23;20265;-80
2023/09/27 00:58:30;;;;;;;5.25;2.85;;;;;;;15.56;73.41;96053.72;6127006;23;20186;-81
2023/09/27 01:00:55;;;;;;;3.50;3.20;;;;;;;15.50;73.58;96051.75;6151605;23;20242;-80
2023/09/27 01:03:21;;;;;;;3.05;2.70;;;;;;;15.48;73.53;96054.53;6150823;23;20241;-82
2023/09/27 01:05:47;;;;;;;3.20;2.90;;;;;;;15.46;73.61;96046.03;6127080;23;20702;-80
2023/09/27 01:08:12;;;;;;;4.80;2.78;;;;;;;15.42;73.67;96054.38;6126942;23;20207;-81
2023/09/27 01:10:38;;;;;;;3.92;3.08;;;;;;;15.35;73.76;96054.19;6151915;23;20155;-80
2023/09/27 01:13:03;;;;;;;3.65;2.85;;;;;;;15.33;73.47;96056.19;6150939;23;20161;-80
2023/09/27 01:15:29;;;;;;;4.32;3.20;;;;;;;15.34;73.20;96060.41;6151590;23;20254;-80
2023/09/27 01:17:59;;;;;;;4.88;3.67;;;;;;;15.06;73.48;96067.78;6127405;23;20156;-79
2023/09/27 01:20:25;;;;;;;5.18;3.50;;;;;;;14.66;74.98;96063.28;6126525;23;20182;-79
2023/09/27 01:22:58;;;;;;;4.35;3.95;;;;;;;14.52;76.40;96066.53;6126516;23;20220;-80
2023/09/27 01:25:34;;;;;;;6.73;3.70;;;;;;;14.30;77.25;96062.66;6151080;23;20657;-79
2023/09/27 01:28:04;;;;;;;6.43;3.40;;;;;;;14.15;79.06;96065.09;6151961;23;20666;-80
2023/09/27 01:30:32;;;;;;;4.33;3.90;;;;;;;14.27;77.80;96063.81;6126393;23;20666;-79
2023/09/27 01:33:08;;;;;;;4.75;3.75;;;;;;;14.36;77.66;96057.63;6150999;23;20162;-81
2023/09/27 01:35:38;;;;;;;4.87;3.93;;;;;;;14.39;77.88;96056.50;6126753;23;20639;-79
2023/09/27 01:38:04;;;;;;;5.20;3.73;;;;;;;14.52;77.53;96056.09;6127061;23;20159;-81
2023/09/27 01:40:30;;;;;;;3.80;3.20;;;;;;;14.57;76.49;96049.38;6151325;23;20614;-81
2023/09/27 01:42:57;;;;;;;3.58;3.28;;;;;;;14.59;76.66;96055.31;6126492;23;20163;-81
2023/09/27 01:45:23;;;;;;;4.03;3.33;;;;;;;14.61;76.77;96065.59;6126191;23;20183;-81
2023/09/27 01:47:48;;;;;;;3.90;3.50;;;;;;;14.58;76.66;96063.31;6151327;23;20524;-80
2023/09/27 01:50:14;;;;;;;3.73;3.33;;;;;;;14.58;76.46;96063.31;6124913;23;20247;-81
2023/09/27 01:52:39;;;;;;;3.30;3.08;;;;;;;14.58;76.17;96066.72;6126476;23;20174;-81
2023/09/27 01:55:04;;;;;;;3.65;3.35;;;;;;;14.63;76.07;96068.84;6126694;23;20183;-81
2023/09/27 01:57:31;;;;;;;3.63;3.07;;;;;;;14.62;75.71;96062.00;6102384;23;20529;-79
2023/09/27 01:59:56;;;;;;;3.00;2.77;;;;;;;14.61;75.78;96063.78;6126324;23;20195;-80
2023/09/27 02:02:21;;;;;;;3.85;3.53;;;;;;;14.60;75.55;96066.56;6125751;23;20155;-81
2023/09/27 02:04:47;;;;;;;3.60;3.30;;;;;;;14.62;75.43;96064.59;6150447;23;20248;-80
2023/09/27 02:07:12;;;;;;;3.10;2.87;;;;;;;14.62;75.35;96060.19;6152178;23;20151;-80
2023/09/27 02:09:37;;;;;;;3.40;3.10;;;;;;;14.59;75.56;96064.94;6126641;23;20573;-81
2023/09/27 02:12:03;;;;;;;3.47;3.17;;;;;;;14.57;75.21;96066.88;6150949;23;20151;-81
2023/09/27 02:14:28;;;;;;;4.57;3.05;;;;;;;14.54;75.35;96064.59;6125965;23;20179;-81
2023/09/27 02:16:54;;;;;;;4.13;3.25;;;;;;;14.50;75.09;96063.28;6151295;23;20159;-81
2023/09/27 02:19:19;;;;;;;4.97;2.78;;;;;;;14.39;75.18;96054.69;6125437;23;20209;-82
2023/09/27 02:21:44;;;;;;;3.90;3.30;;;;;;;14.32;75.55;96061.56;6125973;23;20175;-80
2023/09/27 02:24:09;;;;;;;3.37;3.17;;;;;;;14.21;75.88;96064.44;6126406;23;20178;-81
2023/09/27 02:26:36;;;;;;;3.60;3.20;;;;;;;14.18;76.03;96062.16;6127049;23;20186;-80
2023/09/27 02:29:01;;;;;;;5.60;2.73;;;;;;;14.07;76.43;96071.09;6151099;23;20175;-79
2023/09/27 02:31:26;;;;;;;3.20;2.93;;;;;;;14.03;76.66;96063.69;6126327;23;20162;-79
2023/09/27 02:33:52;;;;;;;3.08;2.88;;;;;;;14.08;76.23;96064.06;6150957;23;20160;-80
2023/09/27 02:36:17;;;;;;;4.00;3.07;;;;;;;14.07;76.11;96054.59;6126608;23;20159;-80
2023/09/27 02:38:43;;;;;;;3.10;2.90;;;;;;;14.05;76.35;96057.38;6125994;23;20182;-81
2023/09/27 02:41:08;;;;;;;3.50;3.00;;;;;;;14.04;76.36;96058.31;6153036;23;20245;-80
2023/09/27 02:43:33;;;;;;;3.70;2.78;;;;;;;13.98;76.30;96055.53;6125786;23;20233;-80
2023/09/27 02:45:59;;;;;;;3.27;2.97;;;;;;;13.87;76.94;96054.03;6151237;23;20182;-80
2023/09/27 02:48:24;;;;;;;3.07;2.87;;;;;;;13.96;76.90;96045.25;6125912;23;20592;-81
2023/09/27 02:50:50;;;;;;;3.00;2.60;;;;;;;13.87;76.78;96038.34;6151044;23;20686;-80
2023/09/27 02:53:16;;;;;;;2.97;2.67;;;;;;;13.81;77.00;96028.53;6150112;23;20487;-80
2023/09/27 02:55:42;;;;;;;2.87;2.67;;;;;;;13.77;77.52;96020.16;6153015;23;20194;-81
2023/09/27 02:58:07;;;;;;;3.27;2.97;;;;;;;13.73;77.90;96021.47;6126660;23;20191;-79
2023/09/27 03:00:34;;;;;;;3.80;2.90;;;;;;;13.70;77.60;96027.00;6150736;23;20178;-81
2023/09/27 03:03:03;;;;;;;2.90;2.63;;;;;;;13.67;77.91;96024.69;6124942;23;20258;-80
2023/09/27 03:05:28;;;;;;;3.50;2.77;;;;;;;13.58;78.45;96033.44;6126744;23;20310;-81
2023/09/27 03:07:56;;;;;;;3.27;2.73;;;;;;;13.58;78.47;96036.06;6151115;23;20226;-81
2023/09/27 03:10:21;;;;;;;3.10;2.80;;;;;;;13.56;78.80;96035.41;6126262;23;20537;-81
2023/09/27 03:12:48;;;;;;;3.47;2.90;;;;;;;13.50;78.55;96038.63;6150087;23;20201;-81
2023/09/27 03:15:14;;;;;;;2.87;2.43;;;;;;;13.46;78.77;96040.72;6150599;23;20175;-79
2023/09/27 03:17:43;;;;;;;2.90;2.60;;;;;;;13.46;78.91;96043.34;6126692;23;20603;-79
2023/09/27 03:20:15;;;;;;;2.83;2.63;;;;;;;13.48;78.84;96040.56;6125521;23;20171;-79
2023/09/27 03:22:41;;;;;;;3.10;2.73;;;;;;;13.47;78.77;96044.97;6149967;23;20206;-80
2023/09/27 03:25:07;;;;;;;4.87;2.90;;;;;;;13.47;78.85;96038.94;6150745;23;20254;-80
2023/09/27 03:27:33;;;;;;;4.07;2.90;;;;;;;13.47;79.01;96049.38;6126164;23;20678;-81
2023/09/27 03:29:58;;;;;;;5.17;3.03;;;;;;;13.45;79.01;96040.88;6150907;23;20183;-81
2023/09/27 03:32:24;;;;;;;3.53;2.80;;;;;;;13.39;79.05;96047.53;6126837;23;20508;-81
2023/09/27 03:34:50;;;;;;;3.03;2.83;;;;;;;13.38;78.98;96042.47;6128153;23;20229;-80
2023/09/27 03:37:16;;;;;;;2.80;2.60;;;;;;;13.37;78.90;96048.66;6152622;23;20178;-80
2023/09/27 03:39:42;;;;;;;2.90;2.60;;;;;;;13.32;78.87;96043.88;6152403;23;20159;-80
2023/09/27 03:42:07;;;;;;;4.03;2.90;;;;;;;13.27;79.04;96046.13;6128223;23;20159;-81
2023/09/27 03:44:33;;;;;;;2.97;2.73;;;;;;;13.24;78.98;96054.25;6127364;23;20195;-81
2023/09/27 03:46:58;;;;;;;3.13;2.93;;;;;;;13.21;79.30;96050.16;6153160;23;20499;-80
2023/09/27 03:49:23;;;;;;;3.77;2.43;;;;;;;13.20;79.00;96051.13;6152474;23;20643;-81
2023/09/27 03:51:49;;;;;;;3.30;3.00;;;;;;;13.19;79.53;96052.09;6152778;23;20159;-80
2023/09/27 03:54:14;;;;;;;2.83;2.40;;;;;;;13.17;79.76;96053.22;6151790;23;20198;-80
2023/09/27 03:56:40;;;;;;;4.40;2.97;;;;;;;13.18;79.76;96052.22;6152835;23;20167;-80
2023/09/27 03:59:05;;;;;;;3.00;2.73;;;;;;;13.16;80.37;96052.34;6127309;23;20159;-80
2023/09/27 04:01:31;;;;;;;3.33;2.73;;;;;;;13.16;80.04;96054.16;6128106;23;20503;-81
2023/09/27 04:03:58;;;;;;;4.53;2.93;;;;;;;13.15;80.39;96058.53;6151022;23;20551;-81
2023/09/27 04:06:23;;;;;;;8.30;4.30;;;;;;;13.14;80.74;96054.31;6152615;23;20201;-81
2023/09/27 04:08:48;;;;;;;3.67;3.00;;;;;;;13.14;80.67;96049.09;6152216;23;20183;-79
2023/09/27 04:11:14;;;;;;;2.87;2.67;;;;;;;13.12;80.69;96063.25;6127974;23;20170;-79
2023/09/27 04:13:39;;;;;;;3.37;3.07;;;;;;;13.13;80.87;96047.47;6153145;23;20159;-82
2023/09/27 04:16:05;;;;;;;4.07;2.90;;;;;;;13.14;81.34;96054.31;6127877;23;20603;-80
2023/09/27 04:18:31;;;;;;;4.43;3.10;;;;;;;13.12;80.94;96061.47;6127498;23;20159;-79
2023/09/27 04:21:05;;;;;;;3.20;2.70;;;;;;;13.08;80.96;96054.94;6127822;23;20254;-81
2023/09/27 04:23:31;;;;;;;3.73;3.37;;;;;;;13.08;81.50;96060.16;6152064;23;20156;-81
2023/09/27 04:25:56;;;;;;;3.33;3.00;;;;;;;13.07;81.31;96063.69;6151892;23;20665;-81
2023/09/27 04:28:22;;;;;;;3.87;2.90;;;;;;;13.07;81.41;96057.66;6127457;23;20191;-81
2023/09/27 04:30:47;;;;;;;4.27;3.07;;;;;;;13.02;81.22;96065.94;6127234;23;20163;-81
2023/09/27 04:33:13;;;;;;;3.23;2.90;;;;;;;12.99;81.47;96074.09;6151548;23;20234;-81
2023/09/27 04:35:39;;;;;;;3.30;2.93;;;;;;;12.92;81.40;96073.84;6127275;23;20194;-80
2023/09/27 04:38:04;;;;;;;3.03;2.83;;;;;;;12.91;81.63;96079.22;6152823;23;20158;-80
2023/09/27 04:40:30;;;;;;;3.50;3.20;;;;;;;12.89;81.19;96079.34;6151583;23;20243;-80
2023/09/27 04:42:55;;;;;;;4.33;3.73;;;;;;;12.91;81.42;96074.00;6151779;23;20159;-81
2023/09/27 04:45:20;;;;;;;3.43;3.00;;;;;;;12.86;81.38;96078.81;6151728;23;20175;-80
2023/09/27 04:47:46;;;;;;;3.43;3.13;;;;;;;12.88;81.45;96090.75;6151883;23;20611;-80
2023/09/27 04:50:11;;;;;;;3.67;2.90;;;;;;;12.87;81.76;96083.06;6127358;23;20159;-81
2023/09/27 04:52:38;;;;;;;3.80;3.27;;;;;;;12.83;82.23;96082.56;6127048;23;20210;-81
2023/09/27 04:55:05;;;;;;;3.80;3.50;;;;;;;12.87;81.84;96085.69;6126879;23;20242;-81
2023/09/27 04:57:30;;;;;;;3.83;3.40;;;;;;;12.86;81.72;96086.66;6152372;23;20155;-80
2023/09/27 04:59:55;;;;;;;4.03;3.03;;;;;;;12.85;81.75;96088.44;6153000;23;20198;-79
2023/09/27 05:02:21;;;;;;;4.00;3.27;;;;;;;12.89;81.64;96094.16;6126482;23;20174;-79
2023/09/27 05:04:47;;;;;;;3.77;3.13;;;;;;;12.85;81.44;96093.66;6127069;23;20627;-81
2023/09/27 05:07:15;;;;;;;4.33;2.97;;;;;;;12.85;81.51;96104.06;6126936;23;20159;-81
2023/09/27 05:09:40;;;;;;;3.80;3.37;;;;;;;12.82;81.39;96100.97;6127037;23;20187;-79
2023/09/27 05:12:06;;;;;;;3.27;2.90;;;;;;;12.83;81.09;96105.19;6127138;23;20168;-79
2023/09/27 05:14:31;;;;;;;5.27;3.40;;;;;;;12.81;81.13;96105.34;6126983;23;20279;-79
2023/09/27 05:16:56;;;;;;;3.63;3.20;;;;;;;12.82;81.05;96106.16;6127479;23;20155;-79
2023/09/27 05:19:22;;;;;;;4.10;3.70;;;;;;;12.82;81.31;96100.97;6151110;23;20156;-80
2023/09/27 05:21:47;;;;;;;4.20;3.47;;;;;;;12.80;81.36;96101.09;6127359;23;20171;-79
2023/09/27 05:24:12;;;;;;;3.73;3.40;;;;;;;12.87;81.19;96096.09;6150955;23;20179;-79
2023/09/27 05:26:38;;;;;;;3.90;3.60;;;;;;;12.92;80.90;96096.50;6126785;23;20159;-80
2023/09/27 05:29:03;;;;;;;4.43;3.90;;;;;;;12.97;80.84;96107.28;6127804;23;20188;-78
2023/09/27 05:31:28;;;;;;;4.33;3.30;;;;;;;12.97;80.77;96104.66;6154676;23;20159;-79
2023/09/27 05:33:54;;;;;;;3.77;3.37;;;;;;;12.93;79.44;96098.94;6126937;23;20163;-79
2023/09/27 05:36:19;;;;;;;3.90;3.43;;;;;;;13.01;79.91;96095.59;6126769;23;20218;-80
2023/09/27 05:38:45;;;;;;;3.60;3.10;;;;;;;13.04;79.74;96103.13;6126658;23;20159;-79
2023/09/27 05:41:10;;;;;;;3.87;3.10;;;;;;;13.05;80.08;96099.53;6128062;23;20163;-80
2023/09/27 05:43:35;;;;;;;5.03;3.23;;;;;;;13.03;79.97;96109.28;6151975;23;20587;-79
2023/09/27 05:46:01;;;;;;;5.43;3.70;;;;;;;13.06;79.83;96109.00;6151967;23;20590;-79
2023/09/27 05:48:26;;;;;;;4.30;3.10;;;;;;;13.17;79.87;96105.38;6151701;23;20171;-80
2023/09/27 05:50:51;;;;;;;7.03;3.13;;;;;;;13.22;80.07;96110.97;6151954;23;20159;-80
2023/09/27 05:53:17;;;;;;;3.83;3.50;;;;;;;13.25;80.22;96102.81;6125735;23;20163;-79
2023/09/27 05:55:44;;;;;;;3.30;3.00;;;;;;;13.31;80.11;96108.28;6126763;23;20183;-79
2023/09/27 05:58:09;;;;;;;4.37;3.23;;;;;;;13.35;80.39;96113.19;6127385;23;20156;-78
2023/09/27 06:00:40;;;;;;;5.00;3.40;;;;;;;13.35;80.48;96108.00;6150006;23;20177;-80
2023/09/27 06:03:06;;;;;;;3.33;3.03;;;;;;;13.40;80.46;96113.56;6126118;23;20202;-80
2023/09/27 06:05:32;;;;;;;3.93;3.37;;;;;;;13.46;80.17;96115.56;6125533;23;20261;-80
2023/09/27 06:07:58;;;;;;;3.30;3.00;;;;;;;13.47;80.10;96114.59;6126457;23;20179;-80
2023/09/27 06:10:23;;;;;;;4.57;3.23;;;;;;;13.51;79.80;96110.69;6150948;23;20289;-80
2023/09/27 06:12:48;;;;;;;5.40;3.30;;;;;;;13.58;80.00;96111.72;6126308;23;20169;-79
2023/09/27 06:15:14;;;;;;;4.00;3.30;;;;;;;13.66;80.17;96111.78;6126872;23;20175;-80
2023/09/27 06:17:39;;;;;;;4.50;3.40;;;;;;;13.77;79.86;96108.91;6149916;23;20155;-81
2023/09/27 06:20:11;;;;;;;3.57;3.27;;;;;;;13.85;79.81;96108.97;6151033;23;20552;-81
2023/09/27 06:22:37;;;;;;;4.00;3.10;;;;;;;13.89;79.88;96107.72;6152716;23;20135;-80
2023/09/27 06:25:02;;;;;;;4.37;3.27;;;;;;;13.98;80.04;96102.53;6125165;23;20667;-81
2023/09/27 06:27:28;;;;;;;2.93;2.73;;;;;;;14.07;79.52;96105.03;6153044;23;20179;-81
2023/09/27 06:29:53;;;;;;;3.33;3.03;;;;;;;14.21;79.48;96110.63;6150516;23;20183;-81
2023/09/27 06:32:19;;;;;;;3.40;3.03;;;;;;;14.35;79.09;96118.72;6125775;23;20163;-81
2023/09/27 06:34:44;;;;;;;3.33;2.83;;;;;;;14.47;78.31;96115.84;6150981;23;20685;-81
2023/09/27 06:37:09;;;;;;;3.50;3.20;;;;;;;14.60;78.41;96116.22;6150985;23;20151;-80
2023/09/27 06:39:35;;;;;;;3.37;3.07;;;;;;;14.65;78.47;96124.41;6150489;23;20158;-81
2023/09/27 06:42:00;;;;;;;3.78;2.97;;;;;;;14.66;78.63;96119.00;6151111;23;20159;-80
2023/09/27 06:44:25;;;;;;;3.72;3.03;;;;;;;14.67;78.85;96119.84;6123361;23;20183;-79
2023/09/27 06:46:52;;;;;;;3.65;3.15;;;;;;;14.79;78.49;96120.38;6125150;23;20159;-78
2023/09/27 06:49:17;;;;;;;4.07;2.83;;;;;;;14.86;78.55;96121.38;6151760;23;20314;-80
2023/09/27 06:51:43;;;;;;;3.23;2.93;;;;;;;15.06;77.87;96117.47;6127128;23;20207;-80
2023/09/27 06:54:09;;;;;;;3.45;3.05;;;;;;;15.21;78.02;96120.28;6150315;23;20326;-82
2023/09/27 06:56:34;;;;;;;4.30;2.83;;;;;;;15.45;76.53;96112.41;6127201;23;20603;-83
2023/09/27 06:59:00;;;;;;;3.23;2.93;;;;;;;15.58;76.95;96115.38;6151694;23;20191;-82
2023/09/27 07:01:26;;;;;;;5.17;2.90;;;;;;;15.69;76.19;96116.88;6152124;23;20334;-82
2023/09/27 07:03:51;;;;;;;3.97;2.85;;;;;;;15.85;75.60;96113.41;6126604;23;20543;-81
2023/09/27 07:06:17;;;;;;;4.65;2.97;;;;;;;15.98;75.13;96110.28;6127233;23;20155;-80
2023/09/27 07:08:44;;;;;;;2.60;2.40;;;;;;;16.09;74.49;96116.00;6153201;23;20198;-80
2023/09/27 07:11:09;;;;;;;3.17;2.80;;;;;;;16.25;74.14;96114.28;6152923;23;20155;-80
2023/09/27 07:13:37;;;;;;;2.85;2.63;;;;;;;16.31;73.26;96121.47;6127663;23;20207;-80
2023/09/27 07:16:18;;;;;;;4.05;2.75;;;;;;;16.43;72.45;96120.13;6127123;23;20182;-80
2023/09/27 07:18:44;;;;;;;3.13;2.75;;;;;;;16.53;71.89;96119.94;6127260;23;20162;-80
2023/09/27 07:21:10;;;;;;;3.75;2.95;;;;;;;16.64;71.23;96119.56;6126526;23;20185;-80
2023/09/27 07:23:35;;;;;;;3.88;3.08;;;;;;;16.77;70.45;96116.41;6149961;23;20497;-80
2023/09/27 07:26:00;;;;;;;3.40;3.10;;;;;;;16.84;69.89;96118.16;6127194;23;20179;-79
2023/09/27 07:28:26;;;;;;;5.22;3.22;;;;;;;16.91;69.13;96123.56;6150768;23;20249;-79
2023/09/27 07:30:52;;;;;;;2.97;2.67;;;;;;;16.98;69.25;96122.69;6127557;23;20602;-81
2023/09/27 07:33:18;;;;;;;3.05;2.78;;;;;;;17.03;69.20;96122.16;6127012;23;20476;-79
2023/09/27 07:35:44;;;;;;;2.80;2.60;;;;;;;17.05;67.94;96122.81;6125378;23;20183;-80
2023/09/27 07:38:12;;;;;;;3.03;2.33;;;;;;;17.19;67.40;96123.88;6126434;23;20182;-80
2023/09/27 07:40:38;;;;;;;2.95;2.65;;;;;;;17.27;67.92;96121.19;6127498;23;20155;-80
2023/09/27 07:43:03;;;;;;;3.05;2.53;;;;;;;17.39;67.96;96125.03;6126352;23;20170;-81
2023/09/27 07:45:31;;;;;;;4.25;2.55;;;;;;;17.50;68.05;96122.00;6125147;23;20175;-81
2023/09/27 07:47:57;;;;;;;5.43;2.78;;;;;;;17.61;68.09;96114.69;6127562;23;20167;-80
2023/09/27 07:50:27;;;;;;;5.82;2.80;;;;;;;17.69;67.04;96117.25;6150622;23;20177;-79
2023/09/27 07:52:54;;;;;;;4.15;2.70;;;;;;;17.70;66.27;96111.84;6125479;23;20587;-80
2023/09/27 07:55:21;;;;;;;2.47;2.28;;;;;;;17.86;65.57;96115.31;6151408;23;20246;-80
2023/09/27 07:57:46;;;;;;;4.05;2.60;;;;;;;17.97;65.39;96118.31;6151519;23;20619;-80
2023/09/27 08:00:19;;;;;;;3.10;2.40;;;;;;;17.98;64.50;96111.25;6126956;23;20167;-80
2023/09/27 08:02:45;;;;;;;3.70;2.58;;;;;;;18.19;64.31;96113.97;6126825;23;20159;-81
2023/09/27 08:05:11;;;;;;;2.63;2.30;;;;;;;18.25;64.13;96115.88;6125736;23;20202;-81
2023/09/27 08:07:37;;;;;;;3.03;2.40;;;;;;;18.25;64.31;96110.63;6150598;23;20160;-80
2023/09/27 08:10:02;;;;;;;3.95;2.58;;;;;;;18.19;64.00;96115.78;6127366;23;20842;-80
2023/09/27 08:12:31;;;;;;;3.45;2.42;;;;;;;18.38;63.50;96116.09;6152060;23;20280;-81
2023/09/27 08:14:57;;;;;;;5.38;2.50;;;;;;;18.49;63.54;96124.50;6151525;23;20230;-81
2023/09/27 08:17:22;;;;;;;3.00;2.70;;;;;;;18.52;62.67;96122.31;6152184;23;20167;-80
2023/09/27 08:19:47;;;;;;;4.00;2.30;;;;;;;18.67;61.37;96123.16;6128364;23;20163;-82
2023/09/27 08:22:13;;;;;;;3.85;2.28;;;;;;;18.72;60.14;96119.94;6126826;23;20163;-80
2023/09/27 08:24:38;;;;;;;3.15;2.53;;;;;;;18.89;60.46;96126.63;6128187;23;20186;-80
2023/09/27 08:27:03;;;;;;;2.25;2.05;;;;;;;18.88;58.71;96122.38;6152004;23;20661;-81
2023/09/27 08:29:28;;;;;;;3.88;2.13;;;;;;;19.12;59.13;96129.13;6151755;23;20206;-81
2023/09/27 08:31:54;;;;;;;2.28;1.95;;;;;;;19.19;58.96;96118.69;6127291;23;20155;-81
2023/09/27 08:34:19;;;;;;;2.67;2.00;;;;;;;19.11;57.49;96113.53;6151544;23;20179;-78
2023/09/27 08:36:44;;;;;;;3.33;2.20;;;;;;;19.25;57.71;96108.19;6152895;23;20154;-81
2023/09/27 08:39:10;;;;;;;4.65;2.13;;;;;;;19.36;57.64;96108.72;6127142;23;20182;-80
2023/09/27 08:41:37;;;;;;;1.83;1.67;;;;;;;19.55;57.87;96109.91;6153054;23;20159;-81
2023/09/27 08:44:03;;;;;;;2.40;2.20;;;;;;;19.66;57.04;96106.75;6174898;23;20274;-81
2023/09/27 08:46:30;;;;;;;2.50;2.30;;;;;;;19.44;56.41;96104.13;6151143;23;20234;-81
2023/09/27 08:48:57;;;;;;;2.10;1.90;;;;;;;19.50;56.66;96111.25;6127384;23;20502;-80
2023/09/27 08:51:23;;;;;;;3.53;2.38;;;;;;;19.73;56.66;96100.53;6151683;23;20159;-81
2023/09/27 08:53:49;;;;;;;2.95;2.63;;;;;;;19.82;57.28;96093.31;6150868;23;20151;-80
2023/09/27 08:56:16;;;;;;;5.47;3.00;;;;;;;19.82;57.58;96088.03;6151351;23;20205;-80
2023/09/27 08:58:43;;;;;;;2.67;2.40;;;;;;;19.92;57.43;96091.16;6126504;23;20546;-80
2023/09/27 09:01:09;;;;;;;3.15;2.60;;;;;;;19.96;58.17;96081.84;6125722;23;20849;-80
2023/09/27 09:03:36;;;;;;;3.78;2.60;;;;;;;20.07;58.28;96081.31;6175193;23;20155;-81
2023/09/27 09:06:04;;;;;;;3.35;2.55;;;;;;;20.17;58.20;96078.34;6126835;23;20202;-81
2023/09/27 09:08:30;;;;;;;4.93;2.78;;;;;;;20.19;57.47;96064.94;6127015;23;20179;-80
2023/09/27 09:10:55;;;;;;;3.85;2.78;;;;;;;20.21;57.71;96068.19;6127226;23;20166;-81
2023/09/27 09:13:24;;;;;;;4.05;3.58;;;;;;;20.29;57.99;96079.41;6125357;23;20160;-81
2023/09/27 09:15:51;;;;;;;2.80;2.60;;;;;;;20.24;58.26;96071.28;6152187;23;20250;-81
2023/09/27 09:18:31;;;;;;;5.15;2.72;;;;;;;20.32;57.50;96072.94;6128147;23;20163;-80
2023/09/27 09:20:59;;;;;;;2.72;2.38;;;;;;;20.49;57.33;96073.44;6151741;23;20163;-80
2023/09/27 09:23:36;;;;;;;5.45;2.90;;;;;;;20.57;57.38;96073.28;6176797;23;20167;-80
2023/09/27 09:26:03;;;;;;;3.05;2.75;;;;;;;20.63;57.56;96073.31;6128631;23;20657;-81
2023/09/27 09:28:29;;;;;;;3.75;2.40;;;;;;;20.73;56.54;96077.41;6177570;23;20183;-81
2023/09/27 09:30:55;;;;;;;2.65;2.45;;;;;;;20.88;56.83;96072.78;6153668;23;20245;-81
2023/09/27 09:33:21;;;;;;;2.85;2.33;;;;;;;20.98;55.26;96067.94;6150476;23;20151;-81
2023/09/27 09:35:47;;;;;;;4.07;2.53;;;;;;;21.08;56.34;96068.34;6152472;23;20175;-81
2023/09/27 09:38:12;;;;;;;2.95;2.63;;;;;;;21.06;54.76;96065.09;6128612;23;20596;-80
2023/09/27 09:40:57;;;;;;;3.03;2.72;;;;;;;21.11;55.51;96067.13;6127567;23;20238;-80
2023/09/27 09:43:30;;;;;;;3.63;2.47;;;;;;;21.23;55.42;96072.66;6176638;23;20257;-80
2023/09/27 09:45:55;;;;;;;4.70;2.75;;;;;;;21.09;56.20;96063.88;6152139;23;20226;-81
2023/09/27 09:48:23;;;;;;;3.40;2.55;;;;;;;21.14;54.67;96064.91;6152042;23;20257;-80
2023/09/27 09:50:49;;;;;;;3.53;2.47;;;;;;;21.24;53.26;96061.06;6127692;23;20158;-81
2023/09/27 09:53:15;;;;;;;3.05;2.30;;;;;;;21.26;54.10;96070.41;6152001;23;20491;-81
2023/09/27 09:55:41;;;;;;;4.25;2.22;;;;;;;21.44;53.21;96065.38;6126783;23;20175;-80
2023/09/27 09:58:13;;;;;;;2.75;2.55;;;;;;;21.46;53.95;96059.88;6127491;23;20726;-80
2023/09/27 10:00:45;;;;;;;6.22;2.55;;;;;;;21.36;53.62;96064.75;6127335;23;20569;-79
2023/09/27 10:03:18;;;;;;;3.10;2.53;;;;;;;21.56;55.48;96057.69;6127749;23;20195;-80
2023/09/27 10:05:44;;;;;;;3.65;3.00;;;;;;;21.50;53.07;96045.28;6152086;23;20202;-80
2023/09/27 10:08:09;;;;;;;3.72;2.63;;;;;;;21.44;53.26;96051.34;6126627;23;20198;-80
2023/09/27 10:10:35;;;;;;;3.08;2.28;;;;;;;21.52;53.16;96051.16;6126640;23;20159;-81
2023/09/27 10:13:04;;;;;;;3.60;2.30;;;;;;;21.56;53.27;96044.47;6126126;23;20183;-81
2023/09/27 10:15:33;;;;;;;3.33;2.58;;;;;;;21.56;52.17;96041.81;6126385;23;20233;-81
2023/09/27 10:18:23;;;;;;;5.43;1.92;;;;;;;21.73;52.46;96044.84;6152236;23;20155;-81
2023/09/27 10:21:00;;;;;;;2.95;2.60;;;;;;;21.77;51.17;96041.59;6151934;23;20171;-81
2023/09/27 10:23:26;;;;;;;2.78;2.58;;;;;;;21.99;51.43;96033.41;6150736;23;20741;-80
2023/09/27 10:25:51;;;;;;;4.65;2.45;;;;;;;21.87;50.82;96033.22;6151501;23;20190;-81
2023/09/27 10:28:17;;;;;;;3.40;2.20;;;;;;;22.02;52.13;96035.66;6152757;23;20226;-81
2023/09/27 10:30:45;;;;;;;2.28;1.85;;;;;;;22.04;51.82;96037.06;6127927;23;20163;-80
2023/09/27 10:33:16;;;;;;;3.30;2.67;;;;;;;22.22;51.19;96035.63;6152411;23;20151;-80
2023/09/27 10:35:43;;;;;;;3.30;2.13;;;;;;;22.32;50.00;96036.00;6153301;23;20175;-81
2023/09/27 10:38:10;;;;;;;2.53;2.20;;;;;;;22.22;50.30;96031.16;6153004;23;20151;-81
2023/09/27 10:40:43;;;;;;;2.50;2.00;;;;;;;22.22;49.36;96033.78;6127435;23;20189;-81
2023/09/27 10:43:09;;;;;;;3.85;2.10;;;;;;;22.19;49.84;96022.81;6151646;23;20602;-81
2023/09/27 10:45:34;;;;;;;5.00;2.10;;;;;;;22.17;48.44;96023.00;6150813;23;20175;-81
2023/09/27 10:48:15;;;;;;;3.28;2.35;;;;;;;22.28;48.89;96019.75;6128441;23;20155;-80
2023/09/27 10:50:50;;;;;;;4.60;2.42;;;;;;;22.50;48.29;96014.97;6128391;23;20189;-80
2023/09/27 10:53:15;;;;;;;2.60;2.10;;;;;;;22.59;48.47;96026.94;6124471;23;20162;-81
2023/09/27 10:55:41;;;;;;;2.63;2.05;;;;;;;22.64;46.33;96022.84;6125090;23;20187;-81
2023/09/27 10:58:06;;;;;;;2.50;2.00;;;;;;;22.38;47.42;96015.84;6127385;23;20187;-81
2023/09/27 11:00:31;;;;;;;3.10;1.83;;;;;;;22.69;47.60;96015.88;6127575;23;20163;-82
2023/09/27 11:02:57;;;;;;;3.03;2.10;;;;;;;22.74;46.73;96016.06;6125938;23;20170;-77
2023/09/27 11:05:26;;;;;;;3.30;2.13;;;;;;;22.67;47.14;96015.28;6151587;23;20187;-78
2023/09/27 11:07:51;;;;;;;5.32;2.10;;;;;;;22.81;44.94;96011.56;6128906;23;20500;-78
2023/09/27 11:10:37;;;;;;;4.97;1.63;;;;;;;22.84;45.28;96011.16;6153691;23;20226;-78
2023/09/27 11:13:10;;;;;;;1.98;1.88;;;;;;;22.97;44.52;96014.72;6153804;23;20163;-79
2023/09/27 11:15:36;;;;;;;3.25;1.80;;;;;;;22.61;44.42;96009.00;6153325;23;20202;-78
2023/09/27 11:18:04;;;;;;;4.22;1.88;;;;;;;22.73;44.46;96008.34;6155816;23;20151;-78
2023/09/27 11:20:29;;;;;;;2.25;2.05;;;;;;;22.80;44.61;96003.81;6153196;23;20171;-78
2023/09/27 11:22:58;;;;;;;2.83;1.70;;;;;;;23.01;44.52;95997.41;6154027;23;20161;-79
2023/09/27 11:25:34;;;;;;;2.38;2.00;;;;;;;23.04;43.88;95991.66;6129035;23;20554;-79
2023/09/27 11:28:00;;;;;;;2.33;1.98;;;;;;;22.84;44.30;95989.97;6149410;23;20174;-77
2023/09/27 11:30:34;;;;;;;2.08;1.70;;;;;;;23.07;43.29;95980.66;6126026;23;20156;-78